Time;durP1;ratioP1;P1;durP2;ratioP2;P2;SDS_P1;SDS_P2;PMS_P1;PMS_P2;Temp;Humidity;BMP_temperature;BMP_pressure;BME280_temperature;BME280_humidity;BME280_pressure;Samples;Min_cycle;Max_cycle;Signal;HPM_P1;HPM_P2
2022/01/10 00:01:44;;;;;;;120.93;113.93;;;4.20;99.90;;;;;;4969066;28;20188;-79
2022/01/10 00:04:10;;;;;;;124.03;116.70;;;4.10;99.90;;;;;;4983966;28;20192;-80
2022/01/10 00:06:36;;;;;;;122.60;114.73;;;4.10;99.90;;;;;;4985133;28;20200;-80
2022/01/10 00:09:03;;;;;;;125.17;117.67;;;4.10;99.90;;;;;;4983882;28;20203;-79
2022/01/10 00:11:30;;;;;;;124.83;117.10;;;4.10;99.90;;;;;;5001780;28;20188;-79
2022/01/10 00:13:56;;;;;;;127.47;119.07;;;4.10;99.90;;;;;;5005216;28;20816;-79
2022/01/10 00:16:22;;;;;;;124.57;116.80;;;4.10;99.90;;;;;;4976513;28;20351;-80
2022/01/10 00:18:48;;;;;;;127.10;118.77;;;4.10;99.90;;;;;;5001722;28;20279;-80
2022/01/10 00:21:15;;;;;;;127.13;119.43;;;4.10;99.90;;;;;;4983645;28;20889;-80
2022/01/10 00:23:41;;;;;;;125.97;118.13;;;4.10;99.90;;;;;;5002690;28;20187;-80
2022/01/10 00:26:07;;;;;;;127.83;120.10;;;4.10;99.90;;;;;;5003996;28;20286;-79
2022/01/10 00:28:33;;;;;;;126.53;118.60;;;4.20;99.90;;;;;;5003947;28;20211;-80
2022/01/10 00:30:59;;;;;;;128.97;119.87;;;4.10;99.90;;;;;;4983030;28;20201;-79
2022/01/10 00:33:24;;;;;;;128.33;119.57;;;4.10;99.90;;;;;;4999639;28;20257;-79
2022/01/10 00:35:51;;;;;;;127.70;119.17;;;4.10;99.90;;;;;;5000694;28;20571;-79
2022/01/10 00:38:17;;;;;;;127.37;119.90;;;4.10;99.90;;;;;;4984699;28;20197;-79
2022/01/10 00:40:44;;;;;;;129.17;121.10;;;4.10;99.90;;;;;;4985624;28;20199;-79
2022/01/10 00:43:17;;;;;;;131.07;122.37;;;4.10;99.90;;;;;;5000772;28;20740;-79
2022/01/10 00:45:43;;;;;;;130.43;122.67;;;4.00;99.90;;;;;;4991700;28;20222;-78
2022/01/10 00:48:09;;;;;;;131.63;123.33;;;4.00;99.90;;;;;;5000677;28;20196;-79
2022/01/10 00:50:35;;;;;;;129.70;121.33;;;4.00;99.90;;;;;;5002114;28;20203;-80
2022/01/10 00:53:01;;;;;;;128.97;120.40;;;4.00;99.90;;;;;;5006232;28;20246;-78
2022/01/10 00:55:29;;;;;;;130.97;122.20;;;4.00;99.90;;;;;;4972136;28;20628;-80
2022/01/10 00:57:55;;;;;;;128.17;119.80;;;4.00;99.90;;;;;;5003589;28;20187;-79
2022/01/10 01:00:21;;;;;;;124.47;116.27;;;4.00;99.90;;;;;;5004587;28;20191;-80
2022/01/10 01:02:47;;;;;;;120.93;113.37;;;4.10;99.90;;;;;;5004093;28;20226;-80
2022/01/10 01:05:15;;;;;;;120.80;111.80;;;4.20;99.90;;;;;;5004102;28;20199;-79
2022/01/10 01:07:41;;;;;;;115.63;107.77;;;4.30;99.90;;;;;;5007125;28;20623;-80
2022/01/10 01:13:08;;;;;;;109.70;102.10;;;4.30;99.90;;;;;;5004009;28;20769;-79
2022/01/10 01:15:44;;;;;;;110.10;102.67;;;4.40;99.90;;;;;;5003276;28;20203;-81
2022/01/10 01:25:57;;;;;;;107.63;100.27;;;4.40;99.90;;;;;;5000241;28;20227;-80
2022/01/10 01:28:23;;;;;;;109.43;102.50;;;4.50;99.90;;;;;;5000897;28;20211;-79
2022/01/10 01:30:49;;;;;;;110.53;102.70;;;4.50;99.90;;;;;;5000264;28;20199;-79
2022/01/10 01:33:16;;;;;;;105.80;98.83;;;4.50;99.90;;;;;;5003760;28;20206;-79
2022/01/10 01:35:42;;;;;;;108.13;101.13;;;4.40;99.90;;;;;;5002353;28;20212;-79
2022/01/10 01:38:08;;;;;;;109.07;102.37;;;4.40;99.90;;;;;;4990636;28;20202;-79
2022/01/10 01:40:40;;;;;;;108.27;101.27;;;4.40;99.90;;;;;;5002594;28;20187;-80
2022/01/10 01:43:06;;;;;;;107.07;99.67;;;4.40;99.90;;;;;;4999484;28;20200;-80
2022/01/10 01:45:41;;;;;;;107.63;100.30;;;4.50;99.90;;;;;;4999199;28;20238;-79
2022/01/10 01:48:07;;;;;;;108.93;101.03;;;4.50;99.90;;;;;;4999833;28;20734;-80
2022/01/10 01:50:33;;;;;;;107.60;100.60;;;4.50;99.90;;;;;;5004016;28;20247;-80
2022/01/10 01:52:59;;;;;;;108.67;101.47;;;4.50;99.90;;;;;;5001853;28;20193;-79
2022/01/10 01:55:24;;;;;;;107.20;100.00;;;4.50;99.90;;;;;;5001138;28;20259;-80
2022/01/10 01:57:50;;;;;;;108.03;100.23;;;4.50;99.90;;;;;;5002122;28;20204;-79
2022/01/10 02:00:19;;;;;;;105.97;99.07;;;4.50;99.90;;;;;;4967689;28;20196;-80
2022/01/10 02:02:46;;;;;;;108.33;100.80;;;4.50;99.90;;;;;;4986270;28;20203;-79
2022/01/10 02:05:12;;;;;;;108.03;100.93;;;4.50;99.90;;;;;;4999167;28;20282;-80
2022/01/10 02:07:38;;;;;;;106.07;99.37;;;4.50;99.90;;;;;;5001609;28;20204;-79
2022/01/10 02:10:05;;;;;;;107.27;100.57;;;4.50;99.90;;;;;;4999788;28;20211;-81
2022/01/10 02:12:31;;;;;;;110.47;102.93;;;4.50;99.90;;;;;;4999534;28;20697;-80
2022/01/10 02:14:57;;;;;;;107.63;100.33;;;4.50;99.90;;;;;;4981758;28;20269;-80
2022/01/10 02:17:33;;;;;;;108.07;100.83;;;4.50;99.90;;;;;;4996680;28;20241;-80
2022/01/10 02:20:00;;;;;;;107.80;100.27;;;4.50;99.90;;;;;;4998752;28;20613;-79
2022/01/10 02:22:26;;;;;;;109.03;101.40;;;4.50;99.90;;;;;;5004173;28;20199;-79
2022/01/10 02:24:52;;;;;;;108.10;101.13;;;4.50;99.90;;;;;;5001454;28;20193;-80
2022/01/10 02:27:21;;;;;;;107.07;99.87;;;4.50;99.90;;;;;;5003212;28;20203;-80
2022/01/10 02:29:47;;;;;;;106.57;99.33;;;4.60;99.90;;;;;;5003084;28;20851;-79
2022/01/10 02:32:12;;;;;;;107.97;100.40;;;4.60;99.90;;;;;;4984239;28;20265;-80
2022/01/10 02:34:38;;;;;;;106.90;99.83;;;4.60;99.90;;;;;;5005991;28;20192;-80
2022/01/10 02:37:04;;;;;;;106.87;99.50;;;4.60;99.90;;;;;;4987009;28;20235;-80
2022/01/10 02:39:30;;;;;;;105.37;98.60;;;4.60;99.90;;;;;;5005587;28;20207;-79
2022/01/10 02:41:56;;;;;;;106.57;99.13;;;4.60;99.90;;;;;;5003195;28;20230;-78
2022/01/10 02:44:22;;;;;;;104.37;97.30;;;4.60;99.90;;;;;;5001432;28;20211;-80
2022/01/10 02:46:47;;;;;;;105.57;98.33;;;4.50;99.90;;;;;;5001954;28;20208;-80
2022/01/10 02:49:27;;;;;;;100.17;93.23;;;4.60;99.90;;;;;;5003617;28;20227;-79
2022/01/10 02:51:57;;;;;;;106.00;99.03;;;4.60;99.90;;;;;;5001489;28;20196;-79
2022/01/10 02:54:24;;;;;;;106.53;99.40;;;4.70;99.90;;;;;;5004425;28;20278;-80
2022/01/10 02:56:56;;;;;;;106.00;98.47;;;4.70;99.90;;;;;;4994418;28;20216;-80
2022/01/10 02:59:22;;;;;;;103.57;97.10;;;4.70;99.90;;;;;;5004907;28;20256;-79
2022/01/10 03:01:49;;;;;;;106.27;99.50;;;4.60;99.90;;;;;;5002971;28;20192;-79
2022/01/10 03:04:15;;;;;;;106.07;98.93;;;4.60;99.90;;;;;;5002770;28;20188;-79
2022/01/10 03:06:42;;;;;;;104.30;97.37;;;4.50;99.90;;;;;;5003762;28;20776;-79
2022/01/10 03:09:12;;;;;;;105.27;98.10;;;4.60;99.90;;;;;;5003454;28;20188;-78
2022/01/10 03:11:40;;;;;;;105.07;98.13;;;4.60;99.90;;;;;;5005434;28;20200;-79
2022/01/10 03:14:06;;;;;;;104.57;97.77;;;4.60;99.90;;;;;;5000604;28;20218;-78
2022/01/10 03:16:32;;;;;;;105.40;98.27;;;4.60;99.90;;;;;;4987602;28;20692;-80
2022/01/10 03:18:58;;;;;;;106.20;98.53;;;4.60;99.90;;;;;;5003605;28;20236;-81
2022/01/10 03:21:24;;;;;;;104.40;97.47;;;4.60;99.90;;;;;;4970409;28;20193;-80
2022/01/10 03:23:51;;;;;;;105.87;97.47;;;4.60;99.90;;;;;;5002076;28;20188;-81
2022/01/10 03:26:20;;;;;;;105.97;98.93;;;4.60;99.90;;;;;;5002419;28;20231;-80
2022/01/10 03:28:46;;;;;;;104.80;97.40;;;4.70;99.90;;;;;;5001626;28;20231;-81
2022/01/10 03:31:12;;;;;;;105.00;97.93;;;4.70;99.90;;;;;;5001379;28;20203;-81
2022/01/10 03:33:38;;;;;;;104.53;97.37;;;4.70;99.90;;;;;;5003648;28;20196;-81
2022/01/10 03:36:04;;;;;;;103.77;96.40;;;4.70;99.90;;;;;;4992229;28;20285;-81
2022/01/10 03:38:30;;;;;;;104.87;97.97;;;4.70;99.90;;;;;;5003180;28;20203;-79
2022/01/10 03:40:55;;;;;;;102.53;95.30;;;4.70;99.90;;;;;;5001108;28;20298;-80
2022/01/10 03:43:21;;;;;;;104.00;96.43;;;4.80;99.90;;;;;;5002045;28;20233;-81
2022/01/10 03:45:47;;;;;;;103.10;96.57;;;4.80;99.90;;;;;;5000344;28;20241;-80
2022/01/10 03:48:13;;;;;;;102.10;95.47;;;4.90;99.90;;;;;;4993896;28;20678;-80
2022/01/10 03:50:38;;;;;;;100.57;93.87;;;4.90;99.90;;;;;;5002809;28;20203;-78
2022/01/10 03:53:04;;;;;;;97.13;90.67;;;4.90;99.90;;;;;;4975441;28;20183;-81
2022/01/10 03:55:30;;;;;;;97.77;91.17;;;4.90;99.90;;;;;;4985513;28;20263;-80
2022/01/10 03:57:55;;;;;;;100.93;93.77;;;4.90;99.90;;;;;;4985181;28;20215;-80
2022/01/10 04:00:21;;;;;;;102.07;95.17;;;5.00;99.90;;;;;;4968372;28;20180;-81
2022/01/10 04:02:55;;;;;;;101.37;94.17;;;5.10;99.90;;;;;;5000083;28;20902;-79
2022/01/10 04:05:22;;;;;;;99.07;92.70;;;5.00;99.90;;;;;;5003426;28;20188;-80
2022/01/10 04:07:48;;;;;;;98.83;92.03;;;5.10;99.90;;;;;;5000782;28;20193;-80
2022/01/10 04:10:14;;;;;;;98.77;92.23;;;5.10;99.90;;;;;;4983204;28;20200;-81
2022/01/10 04:12:39;;;;;;;97.47;90.53;;;5.10;99.90;;;;;;5001111;28;20211;-79
2022/01/10 04:15:08;;;;;;;98.90;91.93;;;5.10;99.90;;;;;;4987257;28;20334;-80
2022/01/10 04:17:34;;;;;;;97.67;91.27;;;5.20;99.90;;;;;;5001313;28;20195;-80
2022/01/10 04:20:00;;;;;;;96.07;89.43;;;5.20;99.90;;;;;;5001685;28;20715;-81
2022/01/10 04:22:25;;;;;;;99.57;92.17;;;5.10;99.90;;;;;;4967325;28;20266;-80
2022/01/10 04:24:51;;;;;;;97.37;90.70;;;5.10;99.90;;;;;;4990806;28;20227;-81
2022/01/10 04:27:17;;;;;;;97.90;90.77;;;5.10;99.90;;;;;;5000794;28;20652;-81
2022/01/10 04:29:42;;;;;;;97.60;90.30;;;5.10;99.90;;;;;;4985773;28;20224;-81
2022/01/10 04:32:11;;;;;;;96.53;90.00;;;5.10;99.90;;;;;;5001211;28;20202;-81
2022/01/10 04:34:37;;;;;;;99.13;92.37;;;5.10;99.90;;;;;;4999586;28;20727;-80
2022/01/10 04:37:03;;;;;;;97.50;90.87;;;5.00;99.90;;;;;;4987031;28;20381;-80
2022/01/10 04:39:30;;;;;;;96.17;89.27;;;5.00;99.90;;;;;;5000931;28;20216;-80
2022/01/10 04:41:55;;;;;;;92.60;86.63;;;5.00;99.90;;;;;;4999024;28;20212;-80
2022/01/10 04:44:21;;;;;;;97.23;90.03;;;5.00;99.90;;;;;;4968246;28;20199;-79
2022/01/10 04:46:47;;;;;;;96.07;89.33;;;5.00;99.90;;;;;;4998623;28;20288;-81
2022/01/10 04:49:21;;;;;;;96.53;89.13;;;5.00;99.90;;;;;;4999396;28;20215;-81
2022/01/10 04:51:47;;;;;;;94.77;87.70;;;5.00;99.90;;;;;;4999105;28;20188;-80
2022/01/10 04:54:13;;;;;;;97.43;90.37;;;5.00;99.90;;;;;;5004320;28;20658;-81
2022/01/10 04:56:39;;;;;;;96.17;89.43;;;5.00;99.90;;;;;;4968982;28;20292;-80
2022/01/10 04:59:04;;;;;;;95.47;89.13;;;5.00;99.90;;;;;;4999723;28;20584;-80
2022/01/10 05:01:30;;;;;;;95.00;88.53;;;5.00;99.90;;;;;;4999754;28;20196;-80
2022/01/10 05:03:56;;;;;;;95.00;88.37;;;5.00;99.90;;;;;;4983375;28;20434;-81
2022/01/10 05:06:22;;;;;;;97.53;90.50;;;5.00;99.90;;;;;;5001162;28;20196;-80
2022/01/10 05:08:48;;;;;;;99.90;92.20;;;5.00;99.90;;;;;;5001831;28;20219;-81
2022/01/10 05:11:13;;;;;;;95.90;89.37;;;4.90;99.90;;;;;;4981401;28;20262;-79
2022/01/10 05:13:40;;;;;;;96.00;89.77;;;4.90;99.90;;;;;;5000500;28;20211;-81
2022/01/10 05:16:05;;;;;;;98.40;91.40;;;4.90;99.90;;;;;;4983763;28;20242;-80
2022/01/10 05:18:31;;;;;;;99.67;92.40;;;4.90;99.90;;;;;;5002217;28;20223;-81
2022/01/10 05:20:57;;;;;;;93.60;87.20;;;5.00;99.90;;;;;;4983760;28;20643;-79
2022/01/10 05:23:23;;;;;;;97.60;90.17;;;5.00;99.90;;;;;;5001351;28;20664;-80
2022/01/10 05:25:49;;;;;;;92.43;85.93;;;5.00;99.90;;;;;;4967158;28;20188;-81
2022/01/10 05:28:19;;;;;;;97.67;90.17;;;5.00;99.90;;;;;;5000219;28;20227;-80
2022/01/10 05:30:48;;;;;;;95.67;88.97;;;5.00;99.90;;;;;;4983622;28;20197;-80
2022/01/10 05:33:14;;;;;;;96.47;89.47;;;5.00;99.90;;;;;;4999868;28;20188;-80
2022/01/10 05:35:40;;;;;;;95.07;87.57;;;5.00;99.90;;;;;;4995645;28;20242;-80
2022/01/10 05:38:06;;;;;;;94.33;87.60;;;5.00;99.90;;;;;;5002964;28;20172;-82
2022/01/10 05:40:32;;;;;;;95.53;88.23;;;5.00;99.90;;;;;;4984954;28;20205;-80
2022/01/10 05:42:58;;;;;;;92.70;86.30;;;5.00;99.90;;;;;;4998768;28;20219;-80
2022/01/10 05:45:24;;;;;;;93.20;87.10;;;5.00;99.90;;;;;;5001103;28;20187;-81
2022/01/10 05:47:50;;;;;;;90.47;84.23;;;5.00;99.90;;;;;;4998776;28;20279;-81
2022/01/10 05:50:19;;;;;;;94.93;87.80;;;5.00;99.90;;;;;;5000200;28;20395;-79
2022/01/10 05:52:45;;;;;;;94.27;87.47;;;5.00;99.90;;;;;;5002033;28;20249;-80
2022/01/10 05:55:13;;;;;;;92.47;85.17;;;5.00;99.90;;;;;;5000817;28;20673;-81
2022/01/10 05:57:39;;;;;;;94.47;87.97;;;5.00;99.90;;;;;;5003385;28;20198;-80
2022/01/10 06:00:07;;;;;;;93.83;86.93;;;5.00;99.90;;;;;;5003903;28;20191;-81
2022/01/10 06:02:32;;;;;;;97.37;90.53;;;5.00;99.90;;;;;;4984747;28;20195;-79
2022/01/10 06:04:59;;;;;;;96.03;88.53;;;4.90;99.90;;;;;;4987205;28;20738;-79
2022/01/10 06:07:25;;;;;;;94.27;87.13;;;4.90;99.90;;;;;;5005537;28;20230;-80
2022/01/10 06:09:51;;;;;;;93.63;86.67;;;5.00;99.90;;;;;;4989835;28;20219;-81
2022/01/10 06:12:17;;;;;;;90.87;84.47;;;5.00;99.90;;;;;;4988101;28;20215;-79
2022/01/10 06:14:42;;;;;;;91.73;85.37;;;5.00;99.90;;;;;;5003512;28;20192;-80
2022/01/10 06:17:08;;;;;;;92.70;86.13;;;4.90;99.90;;;;;;5002006;28;20171;-79
2022/01/10 06:19:34;;;;;;;90.03;83.43;;;5.00;99.90;;;;;;5005024;28;20608;-81
2022/01/10 06:21:59;;;;;;;90.60;84.20;;;4.90;99.90;;;;;;5002607;28;20278;-79
2022/01/10 06:24:27;;;;;;;92.77;86.13;;;4.90;99.90;;;;;;4984684;28;20266;-81
2022/01/10 06:26:53;;;;;;;92.07;85.47;;;4.90;99.90;;;;;;5005420;28;20689;-80
2022/01/10 06:29:18;;;;;;;91.57;84.93;;;4.90;99.90;;;;;;4972277;28;20210;-80
2022/01/10 06:31:44;;;;;;;90.27;83.77;;;4.90;99.90;;;;;;5002845;28;20191;-82
2022/01/10 06:34:10;;;;;;;90.30;83.77;;;5.00;99.90;;;;;;5003009;28;20602;-81
2022/01/10 06:36:35;;;;;;;90.47;84.10;;;5.00;99.90;;;;;;4983177;28;20246;-81
2022/01/10 06:39:01;;;;;;;91.93;84.77;;;4.90;99.90;;;;;;5004035;28;20613;-81
2022/01/10 06:41:27;;;;;;;94.33;87.47;;;5.00;99.90;;;;;;5003809;28;20203;-81
2022/01/10 06:43:52;;;;;;;93.87;86.93;;;5.00;99.90;;;;;;5004313;28;20202;-82
2022/01/10 06:46:19;;;;;;;95.00;88.03;;;4.90;99.90;;;;;;4987102;28;20752;-79
2022/01/10 06:48:45;;;;;;;90.83;84.20;;;5.00;99.90;;;;;;5004180;28;20189;-81
2022/01/10 06:51:11;;;;;;;94.77;87.87;;;5.00;99.90;;;;;;4977648;28;20676;-80
2022/01/10 06:53:36;;;;;;;93.47;86.53;;;5.00;99.90;;;;;;4989234;28;20289;-79
2022/01/10 06:56:02;;;;;;;92.37;85.60;;;5.00;99.90;;;;;;5003503;28;20230;-79
2022/01/10 06:58:28;;;;;;;95.77;88.77;;;5.00;99.90;;;;;;5005597;28;20211;-81
2022/01/10 07:00:53;;;;;;;94.43;87.23;;;5.00;99.90;;;;;;5005541;28;20185;-81
2022/01/10 07:03:20;;;;;;;93.73;86.43;;;5.00;99.90;;;;;;4969140;28;20817;-81
2022/01/10 07:05:46;;;;;;;93.30;86.50;;;5.00;99.90;;;;;;5002377;28;20229;-81
2022/01/10 07:08:12;;;;;;;93.87;86.90;;;5.00;99.90;;;;;;5001499;28;20198;-82
2022/01/10 07:10:38;;;;;;;95.37;87.87;;;4.90;99.90;;;;;;5001797;28;20195;-81
2022/01/10 07:13:03;;;;;;;93.20;86.57;;;5.00;99.90;;;;;;4987959;28;20293;-80
2022/01/10 07:15:30;;;;;;;92.57;85.53;;;5.00;99.90;;;;;;5001299;28;20223;-80
2022/01/10 07:17:56;;;;;;;93.07;86.20;;;5.00;99.90;;;;;;4988325;28;20191;-80
2022/01/10 07:20:22;;;;;;;90.03;83.27;;;5.00;99.90;;;;;;5002279;28;20199;-82
2022/01/10 07:22:48;;;;;;;90.90;84.43;;;5.00;99.90;;;;;;4986722;28;20226;-80
2022/01/10 07:25:14;;;;;;;92.30;85.70;;;5.00;99.90;;;;;;5002002;28;20189;-80
2022/01/10 07:27:39;;;;;;;95.70;88.83;;;5.00;99.90;;;;;;5002558;28;20272;-82
2022/01/10 07:30:06;;;;;;;88.80;82.13;;;5.00;99.90;;;;;;5002812;28;20222;-81
2022/01/10 07:32:31;;;;;;;90.83;84.13;;;4.90;99.90;;;;;;5007311;28;20191;-81
2022/01/10 07:34:57;;;;;;;89.43;82.60;;;5.00;99.90;;;;;;4986828;28;20650;-81
2022/01/10 07:37:23;;;;;;;91.83;84.87;;;4.90;99.90;;;;;;5001209;28;20275;-80
2022/01/10 07:39:49;;;;;;;90.20;83.53;;;5.00;99.90;;;;;;5002548;28;20287;-80
2022/01/10 07:42:15;;;;;;;92.60;84.93;;;4.90;99.90;;;;;;4970928;28;20675;-80
2022/01/10 07:44:40;;;;;;;89.40;82.30;;;5.00;99.90;;;;;;5000230;28;20204;-82
2022/01/10 07:47:08;;;;;;;91.30;84.63;;;5.00;99.90;;;;;;5001813;28;20654;-81
2022/01/10 07:49:35;;;;;;;89.53;82.73;;;5.10;99.90;;;;;;5000943;28;20195;-81
2022/01/10 07:52:01;;;;;;;88.97;82.60;;;5.00;99.90;;;;;;5003627;28;20242;-81
2022/01/10 07:54:27;;;;;;;90.83;84.33;;;5.00;99.90;;;;;;5002478;28;20861;-82
2022/01/10 07:56:54;;;;;;;87.73;81.43;;;5.00;99.90;;;;;;5001422;28;20736;-80
2022/01/10 07:59:22;;;;;;;87.27;80.70;;;5.00;99.90;;;;;;4987187;28;20271;-81
2022/01/10 08:01:49;;;;;;;85.73;79.90;;;5.00;99.90;;;;;;5001677;28;20188;-81
2022/01/10 08:04:14;;;;;;;86.80;80.33;;;5.00;99.90;;;;;;5003129;28;20196;-80
2022/01/10 08:06:40;;;;;;;87.37;80.37;;;5.00;99.90;;;;;;5003395;28;20188;-81
2022/01/10 08:09:06;;;;;;;88.10;81.00;;;5.00;99.90;;;;;;5001196;28;20210;-80
2022/01/10 08:11:33;;;;;;;86.47;80.10;;;5.00;99.90;;;;;;5000266;28;20215;-81
2022/01/10 08:13:58;;;;;;;82.70;76.33;;;5.00;99.90;;;;;;5002709;28;20286;-81
2022/01/10 08:16:24;;;;;;;86.87;80.13;;;5.00;99.90;;;;;;5001911;28;20230;-82
2022/01/10 08:18:50;;;;;;;85.73;79.60;;;5.10;99.90;;;;;;4999344;28;20279;-81
2022/01/10 08:21:16;;;;;;;82.40;75.70;;;5.00;99.90;;;;;;4998102;28;20185;-80
2022/01/10 08:23:41;;;;;;;85.13;78.63;;;5.00;99.90;;;;;;4968333;28;20223;-81
2022/01/10 08:26:08;;;;;;;81.60;75.67;;;5.00;99.90;;;;;;4999396;28;20239;-82
2022/01/10 08:28:35;;;;;;;86.97;79.70;;;5.00;99.90;;;;;;4967679;28;20227;-81
2022/01/10 08:31:02;;;;;;;81.83;76.13;;;5.00;99.90;;;;;;5000049;28;20606;-82
2022/01/10 08:33:27;;;;;;;81.67;75.27;;;5.00;99.90;;;;;;5003344;28;20183;-81
2022/01/10 08:35:54;;;;;;;85.23;78.67;;;5.00;99.90;;;;;;4984102;28;20606;-81
2022/01/10 08:38:21;;;;;;;83.13;76.90;;;5.10;99.90;;;;;;4999129;28;20225;-81
2022/01/10 08:40:48;;;;;;;84.83;77.97;;;5.10;99.90;;;;;;4999356;28;20208;-80
2022/01/10 08:43:16;;;;;;;82.37;76.63;;;5.10;99.90;;;;;;5001123;28;20561;-79
2022/01/10 08:45:42;;;;;;;82.93;76.70;;;5.10;99.90;;;;;;5000982;28;20191;-80
2022/01/10 08:48:08;;;;;;;78.80;73.07;;;5.20;99.90;;;;;;5000768;28;20201;-81
2022/01/10 08:50:34;;;;;;;80.20;73.17;;;5.20;99.90;;;;;;4999876;28;20208;-80
2022/01/10 08:53:05;;;;;;;78.27;72.37;;;5.20;99.90;;;;;;5000750;28;20550;-81
2022/01/10 08:55:30;;;;;;;79.13;72.73;;;5.20;99.90;;;;;;5002709;28;20215;-81
2022/01/10 08:57:56;;;;;;;77.67;71.53;;;5.20;99.90;;;;;;5000593;28;20681;-81
2022/01/10 09:00:22;;;;;;;77.60;72.03;;;5.20;99.90;;;;;;4999286;28;21114;-82
2022/01/10 09:02:48;;;;;;;79.17;73.07;;;5.30;99.90;;;;;;5000534;28;20215;-80
2022/01/10 09:05:14;;;;;;;76.00;70.57;;;5.20;99.90;;;;;;4982494;28;20199;-81
2022/01/10 09:07:39;;;;;;;75.80;69.67;;;5.30;99.90;;;;;;5000638;28;20196;-82
2022/01/10 09:10:05;;;;;;;75.70;69.97;;;5.30;99.90;;;;;;5001890;28;20274;-81
2022/01/10 09:12:31;;;;;;;76.47;70.07;;;5.30;99.90;;;;;;4999772;28;20239;-82
2022/01/10 09:14:57;;;;;;;78.87;72.67;;;5.40;99.90;;;;;;5003136;28;20184;-82
2022/01/10 09:17:23;;;;;;;76.50;70.33;;;5.40;99.90;;;;;;4999948;28;20271;-81
2022/01/10 09:19:49;;;;;;;73.90;68.20;;;5.50;99.90;;;;;;5005159;28;20216;-81
2022/01/10 09:22:15;;;;;;;72.83;67.33;;;5.50;99.90;;;;;;4969254;28;20196;-81
2022/01/10 09:24:44;;;;;;;70.03;64.67;;;5.50;99.90;;;;;;4984849;28;20263;-81
2022/01/10 09:27:10;;;;;;;70.10;64.37;;;5.50;99.90;;;;;;5002874;28;20203;-81
2022/01/10 09:29:36;;;;;;;71.03;65.73;;;5.50;99.90;;;;;;4973490;28;20303;-82
2022/01/10 09:32:03;;;;;;;69.73;64.27;;;5.60;99.90;;;;;;4990280;28;20216;-81
2022/01/10 09:34:29;;;;;;;67.63;62.93;;;5.60;99.90;;;;;;5008655;28;20189;-81
2022/01/10 09:36:54;;;;;;;68.07;62.70;;;5.60;99.90;;;;;;5007608;28;20242;-80
2022/01/10 09:39:20;;;;;;;66.17;60.70;;;5.60;99.90;;;;;;5008971;28;20184;-81
2022/01/10 09:41:47;;;;;;;64.77;59.70;;;5.70;99.90;;;;;;4975562;28;20208;-82
2022/01/10 09:44:13;;;;;;;63.93;58.53;;;5.70;99.90;;;;;;5006197;28;20180;-81
2022/01/10 09:46:39;;;;;;;66.80;61.07;;;5.70;99.90;;;;;;4990735;28;20195;-81
2022/01/10 09:49:05;;;;;;;62.80;57.90;;;5.70;99.90;;;;;;5004141;28;20311;-82
2022/01/10 09:51:32;;;;;;;62.97;57.60;;;5.80;99.90;;;;;;5004115;28;20195;-82
2022/01/10 09:54:01;;;;;;;61.60;57.00;;;5.80;99.90;;;;;;5004803;28;20771;-80
2022/01/10 09:56:28;;;;;;;63.50;57.90;;;5.90;99.90;;;;;;5005289;28;20222;-81
2022/01/10 09:58:54;;;;;;;59.80;54.83;;;5.90;99.90;;;;;;4971122;28;20350;-81
2022/01/10 10:01:20;;;;;;;59.50;54.80;;;5.90;99.90;;;;;;5002501;28;20180;-82
2022/01/10 10:03:47;;;;;;;58.50;53.43;;;6.00;99.90;;;;;;5005129;28;20185;-82
2022/01/10 10:06:15;;;;;;;59.83;54.57;;;6.10;99.90;;;;;;5004109;28;20183;-81
2022/01/10 10:08:41;;;;;;;54.77;50.33;;;6.10;99.90;;;;;;5006229;28;20322;-81
2022/01/10 10:11:08;;;;;;;55.13;50.07;;;6.20;99.90;;;;;;5007154;28;20192;-82
2022/01/10 10:13:55;;;;;;;53.33;48.50;;;6.30;99.90;;;;;;5003348;28;20291;-81
2022/01/10 10:16:22;;;;;;;50.67;46.20;;;6.30;99.90;;;;;;5005110;28;20218;-81
2022/01/10 10:18:49;;;;;;;49.23;45.07;;;6.40;99.90;;;;;;4988835;28;20209;-82
2022/01/10 10:21:17;;;;;;;49.33;44.97;;;6.50;99.90;;;;;;5005639;28;20188;-82
2022/01/10 10:23:50;;;;;;;48.90;44.80;;;6.50;99.90;;;;;;5003280;28;20195;-83
2022/01/10 10:26:23;;;;;;;48.67;44.60;;;6.50;99.90;;;;;;5002755;28;20220;-81
2022/01/10 10:28:50;;;;;;;49.03;44.63;;;6.60;99.90;;;;;;5003438;28;20210;-81
2022/01/10 10:31:33;;;;;;;49.40;44.97;;;6.60;99.90;;;;;;5001926;28;20196;-82
2022/01/10 10:34:02;;;;;;;45.80;41.13;;;6.80;99.90;;;;;;5005006;28;20192;-81
2022/01/10 10:36:31;;;;;;;44.37;40.73;;;6.90;99.90;;;;;;5002316;28;20243;-82
2022/01/10 10:39:02;;;;;;;42.80;39.03;;;7.00;99.90;;;;;;5002825;28;20602;-81
2022/01/10 10:41:28;;;;;;;44.70;40.33;;;7.10;99.90;;;;;;4975768;28;20180;-82
2022/01/10 10:43:54;;;;;;;43.53;39.57;;;7.30;99.90;;;;;;4971312;28;20241;-81
2022/01/10 10:46:25;;;;;;;43.70;39.80;;;7.30;99.90;;;;;;5005464;28;20267;-80
2022/01/10 10:48:58;;;;;;;42.07;38.30;;;7.30;99.90;;;;;;5003394;28;20188;-81
2022/01/10 10:51:36;;;;;;;39.80;36.23;;;7.40;99.90;;;;;;5003050;28;20195;-82
2022/01/10 10:54:06;;;;;;;39.20;35.23;;;7.30;99.90;;;;;;5002476;28;20184;-82
2022/01/10 10:56:34;;;;;;;38.47;35.27;;;7.30;99.90;;;;;;5005397;28;20572;-82
2022/01/10 10:59:00;;;;;;;39.77;34.17;;;7.40;99.90;;;;;;5003274;28;20199;-82
2022/01/10 11:01:26;;;;;;;35.87;32.10;;;7.30;99.90;;;;;;5003603;28;20202;-81
2022/01/10 11:03:53;;;;;;;38.93;32.67;;;7.40;99.90;;;;;;5004526;28;20192;-82
2022/01/10 11:06:19;;;;;;;36.73;33.10;;;7.40;99.90;;;;;;5006211;28;20202;-81
2022/01/10 11:08:45;;;;;;;35.43;31.97;;;7.50;99.90;;;;;;5001988;28;20203;-81
2022/01/10 11:11:21;;;;;;;35.00;31.40;;;7.50;99.90;;;;;;4986029;28;20192;-82
2022/01/10 11:13:48;;;;;;;33.07;30.13;;;7.50;99.90;;;;;;4999131;28;20685;-80
2022/01/10 11:16:14;;;;;;;32.63;29.50;;;7.50;99.90;;;;;;4970574;28;20302;-80
2022/01/10 11:18:40;;;;;;;33.27;29.70;;;7.40;99.90;;;;;;4999407;28;20793;-81
2022/01/10 11:21:06;;;;;;;36.63;28.83;;;7.40;99.90;;;;;;4961038;28;20711;-82
2022/01/10 11:23:38;;;;;;;29.90;26.83;;;7.30;99.90;;;;;;4991785;28;20283;-82
2022/01/10 11:26:06;;;;;;;30.73;27.47;;;7.30;99.90;;;;;;5002883;28;20184;-82
2022/01/10 11:28:31;;;;;;;33.13;26.20;;;7.30;99.90;;;;;;5000201;28;20215;-81
2022/01/10 11:31:02;;;;;;;30.50;27.30;;;7.20;99.90;;;;;;5001519;28;20192;-81
2022/01/10 11:33:32;;;;;;;32.33;25.17;;;7.30;99.90;;;;;;5001412;28;20658;-81
2022/01/10 11:36:04;;;;;;;31.90;25.10;;;7.30;99.90;;;;;;5001469;28;20323;-83
2022/01/10 11:39:10;;;;;;;31.27;24.43;;;7.30;99.90;;;;;;5001254;28;20686;-82
2022/01/10 11:41:35;;;;;;;31.23;25.43;;;7.30;99.90;;;;;;4989211;28;20566;-81
2022/01/10 11:44:08;;;;;;;28.10;24.97;;;7.30;99.90;;;;;;4972406;28;20195;-82
2022/01/10 11:46:48;;;;;;;30.80;24.93;;;7.40;99.90;;;;;;5003039;28;20341;-81
2022/01/10 11:49:14;;;;;;;32.83;26.60;;;7.50;99.90;;;;;;5003474;28;20624;-81
2022/01/10 11:51:49;;;;;;;28.63;25.63;;;7.50;99.90;;;;;;5003708;28;20183;-82
2022/01/10 11:54:22;;;;;;;28.43;23.70;;;7.60;99.90;;;;;;5002151;28;20190;-82
2022/01/10 11:56:49;;;;;;;31.60;24.13;;;7.60;99.90;;;;;;5000688;28;20223;-82
2022/01/10 11:59:29;;;;;;;28.63;24.30;;;7.70;99.90;;;;;;5004188;28;20188;-81
2022/01/10 12:02:14;;;;;;;31.23;24.47;;;7.80;99.90;;;;;;5000248;28;20213;-81
2022/01/10 12:04:42;;;;;;;28.70;25.73;;;7.90;99.90;;;;;;5004365;28;20178;-82
2022/01/10 12:07:10;;;;;;;30.97;27.63;;;8.10;99.90;;;;;;5001066;28;20704;-82
2022/01/10 12:09:37;;;;;;;31.90;27.67;;;8.30;99.90;;;;;;5001865;28;20203;-82
2022/01/10 12:12:04;;;;;;;29.07;25.90;;;8.40;99.90;;;;;;5003298;28;20254;-82
2022/01/10 12:14:31;;;;;;;27.90;25.00;;;8.50;99.90;;;;;;5002528;28;20204;-81
2022/01/10 12:16:59;;;;;;;29.63;25.23;;;8.60;99.90;;;;;;4998565;28;20212;-82
2022/01/10 12:19:25;;;;;;;28.83;24.67;;;8.80;99.90;;;;;;4999430;28;20184;-82
2022/01/10 12:21:52;;;;;;;30.70;24.37;;;8.90;99.90;;;;;;5000900;28;20696;-82
2022/01/10 12:24:18;;;;;;;29.60;22.77;;;9.00;99.90;;;;;;5003533;28;20192;-83
2022/01/10 12:26:45;;;;;;;24.77;19.63;;;9.00;99.90;;;;;;5002922;28;20658;-81
2022/01/10 12:29:12;;;;;;;23.43;20.83;;;9.10;99.90;;;;;;5002933;28;20205;-82
2022/01/10 12:31:40;;;;;;;31.37;20.60;;;9.20;99.90;;;;;;5005146;28;20997;-82
2022/01/10 12:34:08;;;;;;;25.40;18.07;;;9.20;99.90;;;;;;5001061;28;20176;-83
2022/01/10 12:36:36;;;;;;;23.23;17.87;;;9.10;99.90;;;;;;4985618;28;20261;-82
2022/01/10 12:39:27;;;;;;;23.73;17.00;;;9.10;99.90;;;;;;5000563;28;20191;-83
2022/01/10 12:41:58;;;;;;;24.97;18.80;;;9.10;99.90;;;;;;5001883;28;20199;-83
2022/01/10 12:44:26;;;;;;;22.57;18.70;;;9.10;99.90;;;;;;5001702;28;20243;-82